Elizabeth Blieler — WDG2711 — position and weather

sailwx.info

Track history (hours):
 
Tides and Currents Weather Stations Pressure Air Temp Water Temp Dewpoint Dewpoint Depression Visibility Wind Speed Wind Dir Waves Ship Positions

Elizabeth Blieler

Owner: Kelly O Towing LLC, Hull, TX. More information available from US FCC via Universal Licensing System and Coast Guard Vessel Documentation Center.

Last reported at 2017-Nov-20 00:30 UTC. Time now 2017-Nov-22 02:00 UTC.
Position N 30°04' W 093°23'.

MMSI: 367518460.

Date/timePositionNaut miles runAvg speedWind from/ knotsBaromVisibWave heightAir tempDewpointWater temp
2017-Nov-20 00:30N 30°04' W 093°23'2 3.6
2017-Nov-20 00:01N 30°04' W 093°21'1 2.2
2017-Nov-19 23:31N 30°05' W 093°20'1 2.7
2017-Nov-19 23:01N 30°06' W 093°19'1 1.8
2017-Nov-19 22:31N 30°06' W 093°18'1 1.9
2017-Nov-19 22:00N 30°05' W 093°17'1 2.2
2017-Nov-19 21:30N 30°04' W 093°16'1 2.4
2017-Nov-19 21:00N 30°03' W 093°16'0 0.0
2017-Nov-19 20:31N 30°03' W 093°16'0 0.0
2017-Nov-19 20:01N 30°03' W 093°16'0 0.0
2017-Nov-19 19:30N 30°03' W 093°16'0 0.0
2017-Nov-19 19:00N 30°03' W 093°16'0 0.0
2017-Nov-19 18:30N 30°03' W 093°16'0 0.0
2017-Nov-19 18:00N 30°03' W 093°16'0 0.0
2017-Nov-19 17:30N 30°03' W 093°16'0 0.0
2017-Nov-19 17:01N 30°03' W 093°16'0 0.8
2017-Nov-19 16:30N 30°03' W 093°16'0 0.0
2017-Nov-19 16:00N 30°03' W 093°16'0 0.0
2017-Nov-19 15:30N 30°03' W 093°16'0 0.0
2017-Nov-19 15:00N 30°03' W 093°16'0 0.7
2017-Nov-19 14:30N 30°03' W 093°16'1 1.1
2017-Nov-19 14:01N 30°02' W 093°15'1 1.8
2017-Nov-19 13:30N 30°02' W 093°15'2 3.4
2017-Nov-19 13:00N 30°00' W 093°14'2 4.1
2017-Nov-19 12:30N 29°59' W 093°12'1 1.1
2017-Nov-19 12:00N 29°58' W 093°12'2 3.7
2017-Nov-19 11:29N 29°57' W 093°10'2 3.6
2017-Nov-19 11:00N 29°56' W 093°08'36 3.9
2017-Nov-19 01:54N 29°54' W 092°27'2 4.1
2017-Nov-19 01:20N 29°53' W 092°25'3 3.3
2017-Nov-19 00:19N 29°51' W 092°22'1 3.9
2017-Nov-19 00:00N 29°51' W 092°20'1 1.4
2017-Nov-18 23:30N 29°50' W 092°20'2 3.7
2017-Nov-18 23:00N 29°50' W 092°18'1 2.0
2017-Nov-18 22:30N 29°49' W 092°17'2 3.9
2017-Nov-18 22:00N 29°48' W 092°15'2 3.5
2017-Nov-18 21:30N 29°47' W 092°13'2 3.4
2017-Nov-18 21:00N 29°47' W 092°11'2 3.1
2017-Nov-18 20:30N 29°47' W 092°09'2 3.9
2017-Nov-18 20:00N 29°47' W 092°07'2 4.0
2017-Nov-18 19:29N 29°48' W 092°05'59 3.3
2017-Nov-18 01:35N 29°36' W 090°58'2 4.1
2017-Nov-18 01:10N 29°34' W 090°57'1 4.4
2017-Nov-18 00:58N 29°34' W 090°56'2 4.5
2017-Nov-18 00:28N 29°33' W 090°54'2 4.4
2017-Nov-18 00:00N 29°32' W 090°52'2 4.4
2017-Nov-17 23:30N 29°32' W 090°49'2 4.3
2017-Nov-17 23:01N 29°32' W 090°47'2 3.7
2017-Nov-17 22:30N 29°33' W 090°45'2 3.1
2017-Nov-17 22:00N 29°34' W 090°43'2 3.5
2017-Nov-17 21:30N 29°36' W 090°43'1 2.9
2017-Nov-17 21:00N 29°37' W 090°42'1 1.7
2017-Nov-17 20:30N 29°36' W 090°41'2 4.3
2017-Nov-17 20:00N 29°35' W 090°39'2 4.1
2017-Nov-17 19:30N 29°35' W 090°36'2 3.4
2017-Nov-17 19:00N 29°34' W 090°34'9 0.2
2017-Nov-15 16:43N 29°33' W 090°24'2 5.4
2017-Nov-15 16:25N 29°33' W 090°26'2 5.5
2017-Nov-15 16:01N 29°34' W 090°28'3 5.5
2017-Nov-15 15:31N 29°34' W 090°32'3 5.4
2017-Nov-15 15:00N 29°34' W 090°35'2 4.0
2017-Nov-15 14:31N 29°35' W 090°37'0 0.0
2017-Nov-15 14:01N 29°35' W 090°37'0 0.0
2017-Nov-15 13:30N 29°35' W 090°37'0 0.0
2017-Nov-15 13:01N 29°35' W 090°37'1 1.6
2017-Nov-15 12:31N 29°35' W 090°38'3 5.4
2017-Nov-15 12:00N 29°36' W 090°41'2 3.5
2017-Nov-15 11:30N 29°36' W 090°43'2 4.3
2017-Nov-15 11:00N 29°34' W 090°43'2 3.2
2017-Nov-15 10:30N 29°34' W 090°45'2 4.1
2017-Nov-15 10:00N 29°32' W 090°46'3 5.6
2017-Nov-15 09:29N 29°32' W 090°50'61 4.3
2017-Nov-14 19:22N 29°51' W 091°57'2 5.4
2017-Nov-14 19:00N 29°50' W 091°59'3 5.4
2017-Nov-14 18:30N 29°49' W 092°02'3 5.4
2017-Nov-14 18:00N 29°48' W 092°05'3 5.3
2017-Nov-14 17:31N 29°47' W 092°08'3 5.3
2017-Nov-14 17:00N 29°47' W 092°11'2 3.7
2017-Nov-14 16:30N 29°47' W 092°13'2 4.7
2017-Nov-14 16:00N 29°48' W 092°15'3 5.1
2017-Nov-14 15:30N 29°50' W 092°18'2 4.1
2017-Nov-14 15:00N 29°50' W 092°20'53 4.0
2017-Nov-14 01:42N 30°06' W 093°18'0 0.6
2017-Nov-14 01:29N 30°06' W 093°18'0 0.0
2017-Nov-14 00:59N 30°06' W 093°18'0 0.0
2017-Nov-14 00:29N 30°06' W 093°18'0 0.0
2017-Nov-13 22:49N 30°06' W 093°18'0 0.0
2017-Nov-13 22:29N 30°06' W 093°18'0 0.0
2017-Nov-13 21:59N 30°06' W 093°18'  
2017-Nov-10 16:30N 30°04' W 093°35'2 4.3
2017-Nov-10 16:00N 30°04' W 093°33'2 4.3
2017-Nov-10 15:30N 30°04' W 093°30'2 4.3
2017-Nov-10 15:00N 30°04' W 093°28'2 4.3
2017-Nov-10 14:30N 30°04' W 093°25'2 4.2
2017-Nov-10 14:00N 30°04' W 093°23'2 3.8
2017-Nov-10 13:30N 30°04' W 093°21'1 2.8
2017-Nov-10 13:00N 30°05' W 093°20'1 2.8
2017-Nov-10 12:30N 30°06' W 093°18'1 1.6
2017-Nov-10 12:00N 30°05' W 093°17'1 2.6
2017-Nov-10 11:30N 30°04' W 093°16'0 0.3
2017-Nov-10 11:00N 30°04' W 093°16'0 0.3
2017-Nov-10 10:30N 30°04' W 093°16'0 0.4
2017-Nov-10 10:00N 30°04' W 093°16'0 0.5
2017-Nov-10 09:30N 30°04' W 093°16'0 0.2
2017-Nov-10 09:00N 30°04' W 093°16'1 1.1
2017-Nov-10 08:30N 30°03' W 093°16'1 2.3
2017-Nov-10 08:00N 30°02' W 093°15'2 3.3
2017-Nov-10 07:30N 30°01' W 093°14'2 3.8
2017-Nov-10 07:00N 29°59' W 093°13'2 4.2
2017-Nov-10 06:30N 29°58' W 093°11'2 4.1
2017-Nov-10 06:00N 29°56' W 093°09'2 4.2
2017-Nov-10 05:30N 29°56' W 093°07'  
Track history (hours):
 
Tides and Currents Weather Stations Pressure Air Temp Water Temp Dewpoint Dewpoint Depression Visibility Wind Speed Wind Dir Waves Ship Positions

Elizabeth Blieler

Owner: Kelly O Towing LLC, Hull, TX. More information available from US FCC via Universal Licensing System and Coast Guard Vessel Documentation Center.

Last reported at 2017-Nov-20 00:30 UTC. Time now 2017-Nov-22 02:00 UTC.
Position N 30°04' W 093°23'.

MMSI: 367518460.

Date/timePositionNaut miles runAvg speedWind from/ knotsBaromVisibWave heightAir tempDewpointWater temp
2017-Nov-20 00:30N 30°04' W 093°23'2 3.6
2017-Nov-20 00:01N 30°04' W 093°21'1 2.2
2017-Nov-19 23:31N 30°05' W 093°20'1 2.7
2017-Nov-19 23:01N 30°06' W 093°19'1 1.8
2017-Nov-19 22:31N 30°06' W 093°18'1 1.9
2017-Nov-19 22:00N 30°05' W 093°17'1 2.2
2017-Nov-19 21:30N 30°04' W 093°16'1 2.4
2017-Nov-19 21:00N 30°03' W 093°16'0 0.0
2017-Nov-19 20:31N 30°03' W 093°16'0 0.0
2017-Nov-19 20:01N 30°03' W 093°16'0 0.0
2017-Nov-19 19:30N 30°03' W 093°16'0 0.0
2017-Nov-19 19:00N 30°03' W 093°16'0 0.0
2017-Nov-19 18:30N 30°03' W 093°16'0 0.0
2017-Nov-19 18:00N 30°03' W 093°16'0 0.0
2017-Nov-19 17:30N 30°03' W 093°16'0 0.0
2017-Nov-19 17:01N 30°03' W 093°16'0 0.8
2017-Nov-19 16:30N 30°03' W 093°16'0 0.0
2017-Nov-19 16:00N 30°03' W 093°16'0 0.0
2017-Nov-19 15:30N 30°03' W 093°16'0 0.0
2017-Nov-19 15:00N 30°03' W 093°16'0 0.7
2017-Nov-19 14:30N 30°03' W 093°16'1 1.1
2017-Nov-19 14:01N 30°02' W 093°15'1 1.8
2017-Nov-19 13:30N 30°02' W 093°15'2 3.4
2017-Nov-19 13:00N 30°00' W 093°14'2 4.1
2017-Nov-19 12:30N 29°59' W 093°12'1 1.1
2017-Nov-19 12:00N 29°58' W 093°12'2 3.7
2017-Nov-19 11:29N 29°57' W 093°10'2 3.6
2017-Nov-19 11:00N 29°56' W 093°08'36 3.9
2017-Nov-19 01:54N 29°54' W 092°27'2 4.1
2017-Nov-19 01:20N 29°53' W 092°25'3 3.3
2017-Nov-19 00:19N 29°51' W 092°22'1 3.9
2017-Nov-19 00:00N 29°51' W 092°20'1 1.4
2017-Nov-18 23:30N 29°50' W 092°20'2 3.7
2017-Nov-18 23:00N 29°50' W 092°18'1 2.0
2017-Nov-18 22:30N 29°49' W 092°17'2 3.9
2017-Nov-18 22:00N 29°48' W 092°15'2 3.5
2017-Nov-18 21:30N 29°47' W 092°13'2 3.4
2017-Nov-18 21:00N 29°47' W 092°11'2 3.1
2017-Nov-18 20:30N 29°47' W 092°09'2 3.9
2017-Nov-18 20:00N 29°47' W 092°07'2 4.0
2017-Nov-18 19:29N 29°48' W 092°05'59 3.3
2017-Nov-18 01:35N 29°36' W 090°58'2 4.1
2017-Nov-18 01:10N 29°34' W 090°57'1 4.4
2017-Nov-18 00:58N 29°34' W 090°56'2 4.5
2017-Nov-18 00:28N 29°33' W 090°54'2 4.4
2017-Nov-18 00:00N 29°32' W 090°52'2 4.4
2017-Nov-17 23:30N 29°32' W 090°49'2 4.3
2017-Nov-17 23:01N 29°32' W 090°47'2 3.7
2017-Nov-17 22:30N 29°33' W 090°45'2 3.1
2017-Nov-17 22:00N 29°34' W 090°43'2 3.5
2017-Nov-17 21:30N 29°36' W 090°43'1 2.9
2017-Nov-17 21:00N 29°37' W 090°42'1 1.7
2017-Nov-17 20:30N 29°36' W 090°41'2 4.3
2017-Nov-17 20:00N 29°35' W 090°39'2 4.1
2017-Nov-17 19:30N 29°35' W 090°36'2 3.4
2017-Nov-17 19:00N 29°34' W 090°34'9 0.2
2017-Nov-15 16:43N 29°33' W 090°24'2 5.4
2017-Nov-15 16:25N 29°33' W 090°26'2 5.5
2017-Nov-15 16:01N 29°34' W 090°28'3 5.5
2017-Nov-15 15:31N 29°34' W 090°32'3 5.4
2017-Nov-15 15:00N 29°34' W 090°35'2 4.0
2017-Nov-15 14:31N 29°35' W 090°37'0 0.0
2017-Nov-15 14:01N 29°35' W 090°37'0 0.0
2017-Nov-15 13:30N 29°35' W 090°37'0 0.0
2017-Nov-15 13:01N 29°35' W 090°37'1 1.6
2017-Nov-15 12:31N 29°35' W 090°38'3 5.4
2017-Nov-15 12:00N 29°36' W 090°41'2 3.5
2017-Nov-15 11:30N 29°36' W 090°43'2 4.3
2017-Nov-15 11:00N 29°34' W 090°43'2 3.2
2017-Nov-15 10:30N 29°34' W 090°45'2 4.1
2017-Nov-15 10:00N 29°32' W 090°46'3 5.6
2017-Nov-15 09:29N 29°32' W 090°50'61 4.3
2017-Nov-14 19:22N 29°51' W 091°57'2 5.4
2017-Nov-14 19:00N 29°50' W 091°59'3 5.4
2017-Nov-14 18:30N 29°49' W 092°02'3 5.4
2017-Nov-14 18:00N 29°48' W 092°05'3 5.3
2017-Nov-14 17:31N 29°47' W 092°08'3 5.3
2017-Nov-14 17:00N 29°47' W 092°11'2 3.7
2017-Nov-14 16:30N 29°47' W 092°13'2 4.7
2017-Nov-14 16:00N 29°48' W 092°15'3 5.1
2017-Nov-14 15:30N 29°50' W 092°18'2 4.1
2017-Nov-14 15:00N 29°50' W 092°20'53 4.0
2017-Nov-14 01:42N 30°06' W 093°18'0 0.6
2017-Nov-14 01:29N 30°06' W 093°18'0 0.0
2017-Nov-14 00:59N 30°06' W 093°18'0 0.0
2017-Nov-14 00:29N 30°06' W 093°18'0 0.0
2017-Nov-13 22:49N 30°06' W 093°18'0 0.0
2017-Nov-13 22:29N 30°06' W 093°18'0 0.0
2017-Nov-13 21:59N 30°06' W 093°18'  
2017-Nov-10 16:30N 30°04' W 093°35'2 4.3
2017-Nov-10 16:00N 30°04' W 093°33'2 4.3
2017-Nov-10 15:30N 30°04' W 093°30'2 4.3
2017-Nov-10 15:00N 30°04' W 093°28'2 4.3
2017-Nov-10 14:30N 30°04' W 093°25'2 4.2
2017-Nov-10 14:00N 30°04' W 093°23'2 3.8
2017-Nov-10 13:30N 30°04' W 093°21'1 2.8
2017-Nov-10 13:00N 30°05' W 093°20'1 2.8
2017-Nov-10 12:30N 30°06' W 093°18'1 1.6
2017-Nov-10 12:00N 30°05' W 093°17'1 2.6
2017-Nov-10 11:30N 30°04' W 093°16'0 0.3
2017-Nov-10 11:00N 30°04' W 093°16'0 0.3
2017-Nov-10 10:30N 30°04' W 093°16'0 0.4
2017-Nov-10 10:00N 30°04' W 093°16'0 0.5
2017-Nov-10 09:30N 30°04' W 093°16'0 0.2
2017-Nov-10 09:00N 30°04' W 093°16'1 1.1
2017-Nov-10 08:30N 30°03' W 093°16'1 2.3
2017-Nov-10 08:00N 30°02' W 093°15'2 3.3
2017-Nov-10 07:30N 30°01' W 093°14'2 3.8
2017-Nov-10 07:00N 29°59' W 093°13'2 4.2
2017-Nov-10 06:30N 29°58' W 093°11'2 4.1
2017-Nov-10 06:00N 29°56' W 093°09'2 4.2
2017-Nov-10 05:30N 29°56' W 093°07'  

Dump ship's entire track history